Time,TemperatureF,DewpointF,PressureIn,WindDirection,WindDirectionDegrees,WindSpeedMPH,WindSpeedGustMPH,Humidity,HourlyPrecipIn,Conditions,Clouds,dailyrainin,SoftwareType,DateUTC
2013-01-21 00:02:00,25.0,11.0,-100.00,NE,35,4.0,6.0,54,-99.99,,,-99.99,,2013-01-21 08:02:00,
2013-01-21 00:13:00,25.0,11.0,-100.00,NE,35,4.0,6.0,54,-99.99,,,-99.99,,2013-01-21 08:13:00,
2013-01-21 00:22:00,25.0,11.0,-100.00,NE,35,4.0,6.0,54,-99.99,,,-99.99,,2013-01-21 08:22:00,
2013-01-21 00:33:00,23.0,12.0,-100.00,North,6,1.0,3.0,61,-99.99,,,-99.99,,2013-01-21 08:33:00,
2013-01-21 00:43:00,23.0,12.0,-100.00,North,6,1.0,3.0,61,-99.99,,,-99.99,,2013-01-21 08:43:00,
2013-01-21 00:53:00,24.0,11.0,-100.00,NE,44,2.0,5.0,58,-99.99,,,-99.99,,2013-01-21 08:53:00,
2013-01-21 01:02:00,24.0,11.0,-100.00,NE,44,2.0,5.0,58,-99.99,,,-99.99,,2013-01-21 09:02:00,
2013-01-21 01:12:00,24.0,11.0,-100.00,NE,44,2.0,5.0,58,-99.99,,,-99.99,,2013-01-21 09:12:00,
2013-01-21 01:22:00,24.0,11.0,-100.00,NE,44,2.0,5.0,58,-99.99,,,-99.99,,2013-01-21 09:22:00,
2013-01-21 01:33:00,24.0,11.0,-100.00,ENE,68,1.0,4.0,59,-99.99,,,-99.99,,2013-01-21 09:33:00,
2013-01-21 01:43:00,24.0,11.0,-100.00,ENE,68,1.0,4.0,59,-99.99,,,-99.99,,2013-01-21 09:43:00,
2013-01-21 01:53:00,23.0,12.0,-100.00,ESE,114,1.0,4.0,62,-99.99,,,-99.99,,2013-01-21 09:53:00,
2013-01-21 02:02:00,23.0,12.0,-100.00,ESE,114,1.0,4.0,62,-99.99,,,-99.99,,2013-01-21 10:02:00,
2013-01-21 02:12:00,23.0,12.0,-100.00,NE,51,2.0,7.0,60,-99.99,,,-99.99,,2013-01-21 10:12:00,
2013-01-21 02:22:00,23.0,12.0,-100.00,NE,51,2.0,7.0,60,-99.99,,,-99.99,,2013-01-21 10:22:00,
2013-01-21 02:32:00,24.0,12.0,-100.00,NE,51,3.0,6.0,60,-99.99,,,-99.99,,2013-01-21 10:32:00,
2013-01-21 02:42:00,24.0,12.0,-100.00,NE,51,3.0,6.0,60,-99.99,,,-99.99,,2013-01-21 10:42:00,
2013-01-21 02:52:00,24.0,12.0,-100.00,ENE,62,2.0,7.0,61,-99.99,,,-99.99,,2013-01-21 10:52:00,
2013-01-21 03:02:00,24.0,12.0,-100.00,ENE,62,2.0,7.0,61,-99.99,,,-99.99,,2013-01-21 11:02:00,
2013-01-21 03:12:00,24.0,12.0,-100.00,ENE,72,2.0,4.0,59,-99.99,,,-99.99,,2013-01-21 11:12:00,
2013-01-21 03:22:00,24.0,12.0,-100.00,ENE,72,2.0,4.0,59,-99.99,,,-99.99,,2013-01-21 11:22:00,
2013-01-21 03:32:00,24.0,12.0,-100.00,ENE,72,2.0,4.0,59,-99.99,,,-99.99,,2013-01-21 11:32:00,
2013-01-21 03:42:00,24.0,12.0,-100.00,ENE,72,2.0,4.0,59,-99.99,,,-99.99,,2013-01-21 11:42:00,
2013-01-21 03:53:00,25.0,10.0,-100.00,ENE,58,2.0,8.0,53,-99.99,,,-99.99,,2013-01-21 11:53:00,
2013-01-21 04:02:00,25.0,10.0,-100.00,ENE,58,2.0,8.0,53,-99.99,,,-99.99,,2013-01-21 12:02:00,
2013-01-21 04:12:00,24.0,12.0,-100.00,NE,52,1.0,4.0,61,-99.99,,,-99.99,,2013-01-21 12:12:00,
2013-01-21 04:22:00,24.0,12.0,-100.00,NE,52,1.0,4.0,61,-99.99,,,-99.99,,2013-01-21 12:22:00,
2013-01-21 04:32:00,24.0,12.0,-100.00,NE,52,1.0,4.0,61,-99.99,,,-99.99,,2013-01-21 12:32:00,
2013-01-21 04:42:00,24.0,12.0,-100.00,NE,52,1.0,4.0,61,-99.99,,,-99.99,,2013-01-21 12:42:00,
2013-01-21 04:53:00,23.0,11.0,-100.00,NNE,14,2.0,5.0,61,-99.99,,,-99.99,,2013-01-21 12:53:00,
2013-01-21 05:02:00,23.0,11.0,-100.00,NNE,14,2.0,5.0,61,-99.99,,,-99.99,,2013-01-21 13:02:00,
2013-01-21 05:12:00,22.0,12.0,-100.00,NE,40,2.0,4.0,65,-99.99,,,-99.99,,2013-01-21 13:12:00,
2013-01-21 05:22:00,22.0,12.0,-100.00,NE,40,2.0,4.0,65,-99.99,,,-99.99,,2013-01-21 13:22:00,
2013-01-21 05:33:00,22.0,12.0,-100.00,NE,49,1.0,5.0,64,-99.99,,,-99.99,,2013-01-21 13:33:00,
2013-01-21 05:42:00,22.0,12.0,-100.00,NE,49,1.0,5.0,64,-99.99,,,-99.99,,2013-01-21 13:42:00,
2013-01-21 05:53:00,22.0,12.0,-100.00,NE,49,1.0,5.0,64,-99.99,,,-99.99,,2013-01-21 13:53:00,
2013-01-21 06:03:00,22.0,12.0,-100.00,NE,49,1.0,5.0,64,-99.99,,,-99.99,,2013-01-21 14:03:00,
2013-01-21 06:12:00,23.0,11.0,-100.00,NNE,32,3.0,7.0,59,-99.99,,,-99.99,,2013-01-21 14:12:00,
2013-01-21 06:23:00,23.0,11.0,-100.00,NNE,32,3.0,7.0,59,-99.99,,,-99.99,,2013-01-21 14:23:00,
2013-01-21 06:32:00,23.0,11.0,-100.00,NNE,32,3.0,7.0,59,-99.99,,,-99.99,,2013-01-21 14:32:00,
2013-01-21 06:43:00,23.0,11.0,-100.00,NNE,32,3.0,7.0,59,-99.99,,,-99.99,,2013-01-21 14:43:00,
2013-01-21 06:53:00,22.0,12.0,-100.00,NE,35,2.0,4.0,65,-99.99,,,-99.99,,2013-01-21 14:53:00,
2013-01-21 07:03:00,22.0,12.0,-100.00,NE,35,2.0,4.0,65,-99.99,,,-99.99,,2013-01-21 15:03:00,
2013-01-21 07:13:00,23.0,12.0,-100.00,NE,35,3.0,5.0,61,-99.99,,,-99.99,,2013-01-21 15:13:00,
2013-01-21 07:22:00,23.0,12.0,-100.00,NE,35,3.0,5.0,61,-99.99,,,-99.99,,2013-01-21 15:22:00,
2013-01-21 07:33:00,23.0,11.0,-100.00,NE,42,3.0,5.0,60,-99.99,,,-99.99,,2013-01-21 15:33:00,
2013-01-21 07:42:00,23.0,11.0,-100.00,NE,42,3.0,5.0,60,-99.99,,,-99.99,,2013-01-21 15:42:00,
2013-01-21 07:53:00,22.0,10.0,-100.00,NE,45,2.0,5.0,60,-99.99,,,-99.99,,2013-01-21 15:53:00,
2013-01-21 08:03:00,22.0,10.0,-100.00,NE,45,2.0,5.0,60,-99.99,,,-99.99,,2013-01-21 16:03:00,
2013-01-21 08:12:00,22.0,10.0,-100.00,NE,47,2.0,6.0,59,-99.99,,,-99.99,,2013-01-21 16:12:00,
2013-01-21 08:23:00,22.0,10.0,-100.00,NE,47,2.0,6.0,59,-99.99,,,-99.99,,2013-01-21 16:23:00,
2013-01-21 08:33:00,22.0,11.0,-100.00,NE,54,1.0,3.0,63,-99.99,,,-99.99,,2013-01-21 16:33:00,
2013-01-21 08:43:00,22.0,11.0,-100.00,NNE,31,2.0,4.0,62,-99.99,,,-99.99,,2013-01-21 16:43:00,
2013-01-21 08:53:00,22.0,11.0,-100.00,ENE,64,1.0,3.0,62,-99.99,,,-99.99,,2013-01-21 16:53:00,
2013-01-21 09:02:00,22.0,11.0,-100.00,NE,54,1.0,4.0,63,-99.99,,,-99.99,,2013-01-21 17:02:00,
2013-01-21 09:12:00,24.0,12.0,-100.00,NE,40,1.0,3.0,60,-99.99,,,-99.99,,2013-01-21 17:12:00,
2013-01-21 09:22:00,24.0,12.0,-100.00,NE,40,1.0,3.0,60,-99.99,,,-99.99,,2013-01-21 17:22:00,
2013-01-21 09:33:00,28.0,14.0,-100.00,NE,51,2.0,3.0,55,-99.99,,,-99.99,,2013-01-21 17:33:00,
2013-01-21 09:42:00,28.0,14.0,-100.00,NE,51,2.0,3.0,55,-99.99,,,-99.99,,2013-01-21 17:42:00,
2013-01-21 09:53:00,31.0,15.0,-100.00,East,85,1.0,2.0,50,-99.99,,,-99.99,,2013-01-21 17:53:00,
2013-01-21 10:02:00,32.0,15.0,-100.00,ENE,66,1.0,2.0,49,-99.99,,,-99.99,,2013-01-21 18:02:00,
2013-01-21 10:12:00,34.0,16.0,-100.00,South,175,0.0,1.0,47,-99.99,,,-99.99,,2013-01-21 18:12:00,
2013-01-21 10:22:00,34.0,14.0,-100.00,NNW,344,0.0,1.0,43,-99.99,,,-99.99,,2013-01-21 18:22:00,
2013-01-21 10:33:00,36.0,9.0,-100.00,SW,215,0.0,2.0,32,-99.99,,,-99.99,,2013-01-21 18:33:00,
2013-01-21 10:42:00,37.0,10.0,-100.00,SSW,206,2.0,4.0,32,-99.99,,,-99.99,,2013-01-21 18:42:00,
2013-01-21 10:52:00,37.0,11.0,-100.00,SW,223,1.0,3.0,34,-99.99,,,-99.99,,2013-01-21 18:52:00,
2013-01-21 11:03:00,37.0,13.0,-100.00,West,265,2.0,4.0,37,-99.99,,,-99.99,,2013-01-21 19:03:00,
2013-01-21 11:12:00,38.0,12.0,-100.00,WSW,240,1.0,3.0,33,-99.99,,,-99.99,,2013-01-21 19:12:00,
2013-01-21 11:22:00,38.0,12.0,-100.00,WSW,240,1.0,3.0,33,-99.99,,,-99.99,,2013-01-21 19:22:00,
2013-01-21 11:32:00,39.0,17.0,-100.00,SSW,206,3.0,5.0,39,-99.99,,,-99.99,,2013-01-21 19:32:00,
2013-01-21 11:42:00,39.0,16.0,-100.00,WSW,250,2.0,4.0,39,-99.99,,,-99.99,,2013-01-21 19:42:00,
2013-01-21 11:52:00,39.0,16.0,-100.00,WSW,254,2.0,3.0,38,-99.99,,,-99.99,,2013-01-21 19:52:00,
2013-01-21 12:02:00,40.0,16.0,-100.00,SSW,199,3.0,7.0,38,-99.99,,,-99.99,,2013-01-21 20:02:00,
2013-01-21 12:12:00,40.0,18.0,-100.00,South,172,3.0,6.0,40,-99.99,,,-99.99,,2013-01-21 20:12:00,
2013-01-21 12:22:00,40.0,19.0,-100.00,SSW,196,2.0,5.0,43,-99.99,,,-99.99,,2013-01-21 20:22:00,
2013-01-21 12:32:00,40.0,19.0,-100.00,SSW,196,2.0,5.0,43,-99.99,,,-99.99,,2013-01-21 20:32:00,
2013-01-21 12:42:00,41.0,16.0,-100.00,SW,219,2.0,5.0,36,-99.99,,,-99.99,,2013-01-21 20:42:00,
2013-01-21 12:53:00,41.0,18.0,-100.00,WSW,248,1.0,3.0,39,-99.99,,,-99.99,,2013-01-21 20:53:00,
2013-01-21 13:03:00,41.0,19.0,-100.00,SW,233,2.0,4.0,40,-99.99,,,-99.99,,2013-01-21 21:03:00,
2013-01-21 13:12:00,42.0,15.0,-100.00,SW,230,2.0,4.0,33,-99.99,,,-99.99,,2013-01-21 21:12:00,
2013-01-21 13:22:00,42.0,15.0,-100.00,WSW,247,1.0,4.0,33,-99.99,,,-99.99,,2013-01-21 21:22:00,
2013-01-21 13:33:00,43.0,15.0,-100.00,SW,215,2.0,5.0,32,-99.99,,,-99.99,,2013-01-21 21:33:00,
2013-01-21 13:43:00,43.0,15.0,-100.00,SW,227,2.0,5.0,32,-99.99,,,-99.99,,2013-01-21 21:43:00,
2013-01-21 13:53:00,42.0,19.0,-100.00,WSW,250,3.0,6.0,39,-99.99,,,-99.99,,2013-01-21 21:53:00,
2013-01-21 14:03:00,42.0,17.0,-100.00,WSW,246,4.0,6.0,36,-99.99,,,-99.99,,2013-01-21 22:03:00,
2013-01-21 14:12:00,45.0,15.0,-100.00,South,169,2.0,4.0,29,-99.99,,,-99.99,,2013-01-21 22:12:00,
2013-01-21 14:22:00,44.0,16.0,-100.00,WSW,237,2.0,3.0,32,-99.99,,,-99.99,,2013-01-21 22:22:00,
2013-01-21 14:33:00,44.0,16.0,-100.00,West,261,1.0,3.0,32,-99.99,,,-99.99,,2013-01-21 22:33:00,
2013-01-21 14:42:00,45.0,11.0,-100.00,WSW,253,1.0,4.0,25,-99.99,,,-99.99,,2013-01-21 22:42:00,
2013-01-21 14:52:00,46.0,10.0,-100.00,West,260,1.0,4.0,23,-99.99,,,-99.99,,2013-01-21 22:52:00,
2013-01-21 15:02:00,46.0,10.0,-100.00,WSW,240,1.0,3.0,23,-99.99,,,-99.99,,2013-01-21 23:02:00,
2013-01-21 15:12:00,47.0,19.0,-100.00,SSW,192,2.0,4.0,33,-99.99,,,-99.99,,2013-01-21 23:12:00,
2013-01-21 15:22:00,46.0,19.0,-100.00,South,188,2.0,4.0,34,-99.99,,,-99.99,,2013-01-21 23:22:00,
2013-01-21 15:32:00,46.0,25.0,-100.00,South,179,2.0,6.0,43,-99.99,,,-99.99,,2013-01-21 23:32:00,
2013-01-21 15:42:00,46.0,23.0,-100.00,SSE,168,2.0,4.0,40,-99.99,,,-99.99,,2013-01-21 23:42:00,
2013-01-21 15:52:00,45.0,21.0,-100.00,SSW,200,1.0,3.0,39,-99.99,,,-99.99,,2013-01-21 23:52:00,
2013-01-21 16:02:00,45.0,14.0,-100.00,SW,234,1.0,3.0,28,-99.99,,,-99.99,,2013-01-22 00:02:00,
2013-01-21 16:12:00,45.0,17.0,-100.00,WSW,257,1.0,2.0,32,-99.99,,,-99.99,,2013-01-22 00:12:00,
2013-01-21 16:22:00,46.0,18.0,-100.00,WSW,237,1.0,2.0,32,-99.99,,,-99.99,,2013-01-22 00:22:00,
2013-01-21 16:32:00,47.0,12.0,-100.00,SSW,203,1.0,2.0,24,-99.99,,,-99.99,,2013-01-22 00:32:00,
2013-01-21 16:42:00,47.0,16.0,-100.00,SW,232,1.0,2.0,29,-99.99,,,-99.99,,2013-01-22 00:42:00,
2013-01-21 16:53:00,45.0,21.0,-100.00,NW,325,0.0,2.0,37,-99.99,,,-99.99,,2013-01-22 00:53:00,
2013-01-21 17:02:00,45.0,22.0,-100.00,North,0,0.0,2.0,39,-99.99,,,-99.99,,2013-01-22 01:02:00,
2013-01-21 17:12:00,42.0,23.0,-100.00,NE,40,0.0,2.0,45,-99.99,,,-99.99,,2013-01-22 01:12:00,
2013-01-21 17:22:00,41.0,22.0,-100.00,NE,55,0.0,3.0,46,-99.99,,,-99.99,,2013-01-22 01:22:00,
2013-01-21 17:32:00,41.0,22.0,-100.00,NE,55,0.0,3.0,46,-99.99,,,-99.99,,2013-01-22 01:32:00,
2013-01-21 17:42:00,36.0,23.0,-100.00,NNE,27,2.0,5.0,59,-99.99,,,-99.99,,2013-01-22 01:42:00,
2013-01-21 17:52:00,36.0,19.0,-100.00,NNE,28,5.0,7.0,49,-99.99,,,-99.99,,2013-01-22 01:52:00,
2013-01-21 18:02:00,36.0,18.0,-100.00,NE,38,5.0,6.0,47,-99.99,,,-99.99,,2013-01-22 02:02:00,
2013-01-21 18:12:00,35.0,18.0,-100.00,East,83,0.0,3.0,51,-99.99,,,-99.99,,2013-01-22 02:12:00,
2013-01-21 18:22:00,34.0,19.0,-100.00,SSW,199,0.0,2.0,53,-99.99,,,-99.99,,2013-01-22 02:22:00,
2013-01-21 18:32:00,33.0,19.0,-100.00,NE,48,2.0,4.0,55,-99.99,,,-99.99,,2013-01-22 02:32:00,
2013-01-21 18:42:00,32.0,18.0,-100.00,NE,35,2.0,5.0,56,-99.99,,,-99.99,,2013-01-22 02:42:00,
2013-01-21 18:52:00,32.0,20.0,-100.00,ENE,64,1.0,4.0,59,-99.99,,,-99.99,,2013-01-22 02:52:00,
2013-01-21 19:02:00,32.0,19.0,-100.00,ENE,66,1.0,5.0,57,-99.99,,,-99.99,,2013-01-22 03:02:00,
2013-01-21 19:12:00,32.0,18.0,-100.00,NNE,31,3.0,5.0,57,-99.99,,,-99.99,,2013-01-22 03:12:00,
2013-01-21 19:22:00,31.0,18.0,-100.00,NE,34,3.0,6.0,58,-99.99,,,-99.99,,2013-01-22 03:22:00,
2013-01-21 19:32:00,31.0,18.0,-100.00,NE,42,3.0,6.0,59,-99.99,,,-99.99,,2013-01-22 03:32:00,
2013-01-21 19:42:00,30.0,19.0,-100.00,NE,38,3.0,6.0,62,-99.99,,,-99.99,,2013-01-22 03:42:00,
2013-01-21 19:51:00,29.0,19.0,-100.00,NE,38,2.0,4.0,65,-99.99,,,-99.99,,2013-01-22 03:51:00,
2013-01-21 19:52:00,30.0,18.0,-100.00,NE,42,2.0,5.0,61,-99.99,,,-99.99,,2013-01-22 03:52:00,
2013-01-21 20:02:00,30.0,19.0,-100.00,NE,49,3.0,4.0,64,-99.99,,,-99.99,,2013-01-22 04:02:00,
2013-01-21 20:12:00,29.0,19.0,-100.00,NE,55,1.0,3.0,66,-99.99,,,-99.99,,2013-01-22 04:12:00,
2013-01-21 20:22:00,29.0,19.0,-100.00,NE,38,2.0,4.0,65,-99.99,,,-99.99,,2013-01-22 04:22:00,
2013-01-21 20:32:00,29.0,19.0,-100.00,NE,38,2.0,4.0,65,-99.99,,,-99.99,,2013-01-22 04:32:00,
2013-01-21 20:42:00,29.0,19.0,-100.00,NE,38,2.0,4.0,65,-99.99,,,-99.99,,2013-01-22 04:42:00,
2013-01-21 21:03:00,29.0,18.0,-100.00,NNE,23,3.0,5.0,64,-99.99,,,-99.99,,2013-01-22 05:03:00,
2013-01-21 21:12:00,29.0,19.0,-100.00,NE,40,2.0,5.0,67,-99.99,,,-99.99,,2013-01-22 05:12:00,
2013-01-21 21:22:00,28.0,18.0,-100.00,NNE,28,3.0,5.0,67,-99.99,,,-99.99,,2013-01-22 05:22:00,
2013-01-21 21:32:00,28.0,18.0,-100.00,NNE,28,3.0,5.0,67,-99.99,,,-99.99,,2013-01-22 05:32:00,
2013-01-21 21:42:00,28.0,18.0,-100.00,NE,37,4.0,7.0,67,-99.99,,,-99.99,,2013-01-22 05:42:00,
2013-01-21 21:52:00,28.0,19.0,-100.00,ENE,66,1.0,3.0,69,-99.99,,,-99.99,,2013-01-22 05:52:00,
2013-01-21 22:02:00,28.0,18.0,-100.00,NNE,32,4.0,7.0,66,-99.99,,,-99.99,,2013-01-22 06:02:00,
2013-01-21 22:12:00,28.0,18.0,-100.00,NE,47,2.0,5.0,67,-99.99,,,-99.99,,2013-01-22 06:12:00,
2013-01-21 22:22:00,28.0,19.0,-100.00,East,89,2.0,4.0,69,-99.99,,,-99.99,,2013-01-22 06:22:00,
2013-01-21 22:32:00,27.0,18.0,-100.00,NNE,32,2.0,4.0,68,-99.99,,,-99.99,,2013-01-22 06:32:00,
2013-01-21 22:42:00,27.0,18.0,-100.00,NE,37,3.0,5.0,68,-99.99,,,-99.99,,2013-01-22 06:42:00,
2013-01-21 22:52:00,27.0,18.0,-100.00,NE,35,4.0,6.0,69,-99.99,,,-99.99,,2013-01-22 06:52:00,
2013-01-21 23:02:00,27.0,18.0,-100.00,ENE,78,3.0,6.0,69,-99.99,,,-99.99,,2013-01-22 07:02:00,
2013-01-21 23:11:00,27.0,18.0,-100.00,NE,35,3.0,5.0,69,-99.99,,,-99.99,,2013-01-22 07:11:00,
2013-01-21 23:22:00,26.0,17.0,-100.00,NNE,32,3.0,5.0,69,-99.99,,,-99.99,,2013-01-22 07:22:00,
2013-01-21 23:32:00,26.0,18.0,-100.00,NE,35,2.0,4.0,70,-99.99,,,-99.99,,2013-01-22 07:32:00,
2013-01-21 23:42:00,26.0,18.0,-100.00,NNE,32,2.0,4.0,70,-99.99,,,-99.99,,2013-01-22 07:42:00,
2013-01-21 23:52:00,26.0,18.0,-100.00,NE,35,2.0,3.0,70,-99.99,,,-99.99,,2013-01-22 07:52:00,